Time;durP1;ratioP1;P1;durP2;ratioP2;P2;SDS_P1;SDS_P2;PMS_P1;PMS_P2;Temp;Humidity;BMP_temperature;BMP_pressure;BME280_temperature;BME280_humidity;BME280_pressure;Samples;Min_cycle;Max_cycle;Signal;HPM_P1;HPM_P2
2023/09/21 06:58:08;;;;;;;12.07;3.10;;;21.60;96.10;;;;;;5051164;19;13577813;-79
2023/09/21 07:00:43;;;;;;;6.65;3.53;;;21.60;96.10;;;;;;7385725;19;20014;-80
2023/09/21 07:03:13;;;;;;;7.43;3.00;;;21.60;96.20;;;;;;7406837;19;20030;-78
2023/09/21 07:05:43;;;;;;;6.50;3.08;;;21.60;96.30;;;;;;7386875;19;20007;-79
2023/09/21 07:08:12;;;;;;;8.43;3.45;;;21.60;96.30;;;;;;7404778;19;20006;-79
2023/09/21 07:10:43;;;;;;;7.32;3.60;;;21.60;96.50;;;;;;7380200;19;20026;-77
2023/09/21 07:13:14;;;;;;;7.63;3.10;;;21.60;96.70;;;;;;7381322;19;20072;-77
2023/09/21 07:15:43;;;;;;;8.93;2.95;;;21.60;96.40;;;;;;7388189;19;20358;-79
2023/09/21 07:18:12;;;;;;;10.80;3.40;;;21.60;96.30;;;;;;7387431;19;20011;-79
2023/09/21 07:20:41;;;;;;;5.70;3.28;;;21.60;96.40;;;;;;7390051;19;20360;-79
2023/09/21 07:23:10;;;;;;;24.55;3.78;;;21.60;96.60;;;;;;7404041;19;20030;-79
2023/09/21 07:25:39;;;;;;;12.88;2.88;;;21.60;96.60;;;;;;7380955;19;19999;-79
2023/09/21 07:28:08;;;;;;;8.73;2.85;;;21.50;96.40;;;;;;7380133;19;19998;-78
2023/09/21 07:30:41;;;;;;;61.63;35.20;;;21.60;96.50;;;;;;7387996;19;20015;-79
2023/09/21 07:33:10;;;;;;;25.95;12.13;;;21.60;96.30;;;;;;7389929;19;20006;-78
2023/09/21 07:35:39;;;;;;;34.28;21.08;;;21.50;96.30;;;;;;7388048;19;20007;-79
2023/09/21 07:38:07;;;;;;;8.82;4.88;;;21.50;96.40;;;;;;7407029;19;20030;-78
2023/09/21 07:40:36;;;;;;;11.95;5.22;;;21.60;96.60;;;;;;7387021;19;20014;-77
2023/09/21 07:43:06;;;;;;;12.70;6.22;;;21.60;96.60;;;;;;7385280;19;20042;-77
2023/09/21 07:46:02;;;;;;;11.02;4.55;;;21.60;96.40;;;;;;7391474;19;20071;-83
2023/09/21 07:48:30;;;;;;;11.55;5.70;;;21.60;96.60;;;;;;7393267;19;20046;-80
2023/09/21 07:51:26;;;;;;;9.75;3.20;;;21.70;96.40;;;;;;7391506;19;20026;-83
2023/09/21 07:53:57;;;;;;;7.03;2.97;;;21.70;96.40;;;;;;7388850;19;20007;-80
2023/09/21 07:56:26;;;;;;;7.20;3.90;;;21.70;96.30;;;;;;7399403;19;20046;-82
2023/09/21 07:58:55;;;;;;;6.40;2.80;;;21.70;96.10;;;;;;7415592;19;20010;-81
2023/09/21 08:01:26;;;;;;;6.60;2.80;;;21.70;96.20;;;;;;7394835;19;20262;-81
2023/09/21 08:03:55;;;;;;;7.22;3.22;;;21.70;96.20;;;;;;7394008;19;20010;-83
2023/09/21 08:06:32;;;;;;;7.30;3.38;;;21.60;96.00;;;;;;7390860;19;20003;-83
2023/09/21 08:09:13;;;;;;;5.30;3.25;;;21.60;96.00;;;;;;7390642;19;20010;-84
2023/09/21 08:11:42;;;;;;;32.58;19.60;;;21.60;96.20;;;;;;7389478;19;20003;-78
2023/09/21 08:14:12;;;;;;;65.90;37.50;;;21.60;96.20;;;;;;7407535;19;20337;-80
2023/09/21 08:17:36;;;;;;;15.13;8.95;;;21.60;96.20;;;;;;7393085;19;19999;-88
2023/09/21 08:20:23;;;;;;;40.10;21.17;;;21.60;95.90;;;;;;7389263;19;20064;-83
2023/09/21 08:22:53;;;;;;;10.32;6.13;;;21.60;96.10;;;;;;7363282;19;20015;-82
2023/09/21 08:25:48;;;;;;;13.05;5.45;;;21.60;96.00;;;;;;7407709;19;20006;-81
2023/09/21 08:28:17;;;;;;;7.55;4.03;;;21.60;96.00;;;;;;7381669;19;20032;-75
2023/09/21 08:30:46;;;;;;;7.15;3.88;;;21.60;96.00;;;;;;7384038;19;20006;-75
2023/09/21 08:33:18;;;;;;;5.28;3.15;;;21.50;96.10;;;;;;7385454;19;20012;-78
2023/09/21 08:35:46;;;;;;;;;;;21.60;96.20;;;;;;7385109;19;20261;-77
2023/09/21 08:38:17;;;;;;;9.05;2.90;;;21.70;96.20;;;;;;7405373;19;19907;-77
2023/09/21 08:40:47;;;;;;;5.25;2.80;;;21.60;96.10;;;;;;7382729;19;20021;-76
2023/09/21 08:43:22;;;;;;;6.35;3.00;;;21.60;96.20;;;;;;7383914;19;20007;-76
2023/09/21 08:45:52;;;;;;;7.47;2.60;;;21.60;96.50;;;;;;7381614;19;20024;-79
2023/09/21 08:48:26;;;;;;;14.77;3.10;;;21.70;96.10;;;;;;7381189;19;20038;-76
2023/09/21 08:50:55;;;;;;;10.27;2.85;;;21.70;96.20;;;;;;7382091;19;20097;-79
2023/09/21 08:53:25;;;;;;;5.60;2.90;;;21.70;96.30;;;;;;7407023;19;20378;-77
2023/09/21 08:55:58;;;;;;;9.95;2.97;;;21.80;96.00;;;;;;7383989;19;20002;-78
2023/09/21 08:58:29;;;;;;;9.13;2.92;;;21.80;95.90;;;;;;7383269;19;20007;-80
2023/09/21 09:00:59;;;;;;;7.53;2.57;;;21.80;95.80;;;;;;7383104;19;20006;-78
2023/09/21 09:04:04;;;;;;;5.05;2.90;;;21.80;95.90;;;;;;7386220;19;20262;-86
2023/09/21 09:06:37;;;;;;;4.90;2.88;;;21.80;95.80;;;;;;7383083;19;20086;-75
2023/09/21 09:09:07;;;;;;;3.22;2.33;;;21.70;95.70;;;;;;7381878;19;20023;-77
2023/09/21 09:11:38;;;;;;;5.68;2.55;;;21.70;96.00;;;;;;7384366;19;20006;-79
2023/09/21 09:14:13;;;;;;;4.95;3.08;;;21.60;95.80;;;;;;7409769;19;19999;-78
2023/09/21 09:16:53;;;;;;;7.32;2.55;;;21.70;95.80;;;;;;7390809;19;20296;-82
2023/09/21 09:19:22;;;;;;;7.38;3.10;;;21.60;95.80;;;;;;7397348;19;20006;-81
2023/09/21 09:22:05;;;;;;;5.53;2.78;;;21.70;95.90;;;;;;7395772;19;20007;-82
2023/09/21 09:24:34;;;;;;;7.90;2.72;;;21.70;95.90;;;;;;7395920;19;20027;-81
2023/09/21 09:27:17;;;;;;;8.00;2.80;;;21.70;95.80;;;;;;7384623;19;20058;-83
2023/09/21 09:29:51;;;;;;;4.18;2.30;;;21.60;95.70;;;;;;7385425;19;20072;-82
2023/09/21 09:32:23;;;;;;;10.07;2.25;;;21.60;95.70;;;;;;7408724;19;20014;-82
2023/09/21 09:34:53;;;;;;;5.32;2.15;;;21.60;96.00;;;;;;7387132;19;20030;-83
2023/09/21 09:40:30;;;;;;;5.25;2.30;;;21.50;95.90;;;;;;7386651;19;20066;-84
2023/09/21 09:43:02;;;;;;;3.17;1.90;;;21.50;96.10;;;;;;7388289;19;20023;-80
2023/09/21 09:45:40;;;;;;;6.05;1.50;;;21.40;95.90;;;;;;7386826;19;20015;-82
2023/09/21 09:48:15;;;;;;;4.97;1.67;;;21.30;96.00;;;;;;7387223;19;20002;-81
2023/09/21 09:50:44;;;;;;;8.93;1.60;;;21.30;96.30;;;;;;7383695;19;20273;-78
2023/09/21 09:53:17;;;;;;;4.13;1.50;;;21.20;96.10;;;;;;7405497;19;20392;-78
2023/09/21 09:55:48;;;;;;;3.88;1.38;;;21.30;96.30;;;;;;7386937;19;20027;-82
2023/09/21 09:58:19;;;;;;;6.28;1.58;;;21.40;96.40;;;;;;7384090;19;20262;-76
2023/09/21 10:00:51;;;;;;;2.75;1.50;;;21.40;96.30;;;;;;7384971;19;20006;-77
2023/09/21 10:03:22;;;;;;;4.50;1.58;;;21.50;96.40;;;;;;7383975;19;20060;-78
2023/09/21 10:05:52;;;;;;;3.05;1.33;;;21.60;96.10;;;;;;7382567;19;20282;-78
2023/09/21 10:08:53;;;;;;;1.73;1.15;;;21.60;95.90;;;;;;7404124;19;20003;-82
2023/09/21 10:11:24;;;;;;;6.50;1.20;;;21.40;95.70;;;;;;7283204;19;2004282;-80
2023/09/21 10:13:55;;;;;;;;;;;21.50;95.70;;;;;;7409866;19;20023;-82
2023/09/21 10:25:50;;;;;;;4.95;2.28;;;21.30;95.80;;;;;;7383043;19;20006;-81
2023/09/21 10:28:45;;;;;;;3.17;1.92;;;21.30;94.70;;;;;;7403052;19;20006;-84
2023/09/21 10:31:25;;;;;;;3.50;0.95;;;21.20;94.30;;;;;;7381284;19;20115;-80
2023/09/21 10:34:12;;;;;;;0.63;0.63;;;21.10;93.50;;;;;;7377651;19;20103;-77
2023/09/21 10:37:10;;;;;;;1.08;0.68;;;20.80;93.50;;;;;;7382582;19;20083;-81
2023/09/21 10:39:40;;;;;;;1.15;0.80;;;20.80;93.00;;;;;;7382745;19;20358;-77
2023/09/21 10:42:44;;;;;;;3.38;0.90;;;20.70;93.20;;;;;;7381014;19;20003;-78
2023/09/21 10:45:16;;;;;;;1.83;1.20;;;20.80;94.10;;;;;;7378324;19;20017;-77
2023/09/21 10:47:51;;;;;;;3.55;1.15;;;20.90;94.10;;;;;;7377324;19;20029;-76
2023/09/21 10:50:23;;;;;;;2.95;1.13;;;21.00;94.30;;;;;;7398808;19;20071;-78
2023/09/21 10:52:57;;;;;;;4.60;1.15;;;21.10;94.00;;;;;;7385807;19;20036;-79
2023/09/21 10:55:26;;;;;;;6.30;1.17;;;21.00;93.40;;;;;;7380083;19;20011;-78
2023/09/21 10:58:00;;;;;;;9.73;0.95;;;21.00;93.50;;;;;;7378741;19;20039;-79
2023/09/21 11:03:49;;;;;;;2.45;0.82;;;20.90;93.70;;;;;;7380545;19;20225;-78
2023/09/21 11:06:33;;;;;;;1.50;0.90;;;20.90;93.80;;;;;;7380252;19;20007;-82
2023/09/21 11:23:00;;;;;;;3.25;1.60;;;20.90;94.30;;;;;;7357554;19;20318;-79
2023/09/21 11:25:29;;;;;;;4.05;1.38;;;20.80;93.90;;;;;;7397806;19;20030;-79
2023/09/21 11:33:53;;;;;;;;;;;;;;;;;;;;;
2023/09/21 12:09:51;;;;;;;3.83;0.90;;;21.10;94.00;;;;;;7339786;19;19915;-76
2023/09/21 12:12:57;;;;;;;3.95;1.15;;;21.10;93.30;;;;;;7379238;19;20003;-82
2023/09/21 12:15:26;;;;;;;2.05;0.98;;;21.00;93.10;;;;;;7384179;19;20034;-81
2023/09/21 12:18:03;;;;;;;8.90;1.45;;;20.90;93.10;;;;;;7385653;19;20063;-83
2023/09/21 12:20:35;;;;;;;4.70;1.15;;;21.00;93.30;;;;;;7388143;19;20030;-80
2023/09/21 12:23:07;;;;;;;3.83;0.85;;;21.00;93.30;;;;;;7406304;19;20007;-78
2023/09/21 12:25:38;;;;;;;9.65;1.08;;;20.90;93.10;;;;;;7386953;19;20011;-79
2023/09/21 12:28:09;;;;;;;2.97;1.20;;;20.90;93.10;;;;;;7386361;19;20022;-81
2023/09/21 12:30:41;;;;;;;5.40;1.10;;;21.00;93.50;;;;;;7389868;19;20011;-80
2023/09/21 12:33:11;;;;;;;2.13;1.00;;;21.00;93.40;;;;;;7388003;19;20007;-79
2023/09/21 12:35:44;;;;;;;3.95;0.88;;;21.10;93.30;;;;;;7386525;19;20034;-81
2023/09/21 12:41:38;;;;;;;2.45;0.80;;;21.10;93.10;;;;;;7283501;19;2004532;-81
2023/09/21 12:44:21;;;;;;;2.97;1.00;;;21.10;92.90;;;;;;7409714;19;20014;-81
2023/09/21 12:46:52;;;;;;;3.08;1.20;;;21.00;92.90;;;;;;7385430;19;20009;-79
2023/09/21 12:49:21;;;;;;;2.03;1.10;;;21.10;93.20;;;;;;7385120;19;20014;-79
2023/09/21 12:52:16;;;;;;;;;;;;;;;;;;;;;
2023/09/21 12:58:33;;;;;;;1.50;0.95;;;21.10;93.00;;;;;;7412275;19;19990;-86
2023/09/21 13:01:21;;;;;;;0.82;0.70;;;21.10;92.80;;;;;;7384506;19;20010;-84
2023/09/21 13:03:50;;;;;;;3.53;1.02;;;21.10;93.10;;;;;;7408886;19;20038;-79
2023/09/21 13:09:36;;;;;;;5.03;1.02;;;21.00;92.70;;;;;;7381329;19;20011;-80
2023/09/21 13:12:05;;;;;;;2.80;1.40;;;20.90;92.70;;;;;;7382929;19;20007;-79
2023/09/21 13:15:00;;;;;;;;;;;;;;;;;;;;;
2023/09/21 13:17:32;;;;;;;2.97;1.00;;;20.90;93.30;;;;;;7360659;19;20804;-81
2023/09/21 13:20:03;;;;;;;2.05;1.00;;;21.00;93.60;;;;;;7405078;19;20015;-78
2023/09/21 13:22:34;;;;;;;;;;;21.00;93.30;;;;;;7386603;19;20009;-78
2023/09/21 13:25:03;;;;;;;1.55;1.00;;;21.20;93.80;;;;;;7388582;19;20333;-80
2023/09/21 13:27:31;;;;;;;3.67;1.17;;;21.10;92.80;;;;;;7386668;19;20010;-78
2023/09/21 13:33:25;;;;;;;3.03;1.15;;;21.30;93.40;;;;;;7390907;19;20032;-83
2023/09/21 13:35:54;;;;;;;2.92;1.02;;;21.40;93.40;;;;;;7380507;19;20014;-80
2023/09/21 13:39:04;;;;;;;3.05;1.05;;;21.40;93.00;;;;;;7402747;19;20025;-82
2023/09/21 13:41:33;;;;;;;2.65;1.08;;;21.50;93.00;;;;;;7285110;19;2006385;-80
2023/09/21 13:44:03;;;;;;;1.35;0.90;;;21.50;93.10;;;;;;7409326;19;20020;-82
2023/09/21 13:46:32;;;;;;;3.08;1.02;;;21.50;93.30;;;;;;7382924;19;20009;-80
2023/09/21 13:49:46;;;;;;;1.80;0.98;;;21.50;93.00;;;;;;7384422;19;20101;-84
2023/09/21 13:52:18;;;;;;;3.05;1.27;;;21.50;93.20;;;;;;7385018;19;20341;-77
2023/09/21 13:54:57;;;;;;;71.00;36.80;;;21.50;93.00;;;;;;7382354;19;20006;-79
2023/09/21 14:01:05;;;;;;;8.05;4.65;;;21.50;93.00;;;;;;7413554;19;20003;-84
2023/09/21 14:03:39;;;;;;;3.55;1.60;;;21.30;92.80;;;;;;7382289;19;20035;-83
2023/09/21 14:06:08;;;;;;;4.75;1.15;;;21.30;93.00;;;;;;7379538;19;19999;-78
2023/09/21 14:08:40;;;;;;;10.68;1.50;;;21.20;92.90;;;;;;7378441;19;20350;-78
2023/09/21 14:11:10;;;;;;;1.80;1.10;;;21.20;93.10;;;;;;7398950;19;20101;-79
2023/09/21 14:13:44;;;;;;;2.75;1.60;;;21.20;93.10;;;;;;7381028;19;20212;-77
2023/09/21 14:16:13;;;;;;;6.18;1.30;;;21.20;92.80;;;;;;7380356;19;20007;-77
2023/09/21 14:18:42;;;;;;;3.58;1.05;;;21.10;92.50;;;;;;7379220;19;20423;-77
2023/09/21 14:21:12;;;;;;;4.22;1.45;;;21.10;92.70;;;;;;7377903;19;20003;-77
2023/09/21 14:27:17;;;;;;;2.25;0.90;;;20.90;92.30;;;;;;7381153;19;20181;-77
2023/09/21 14:29:45;;;;;;;;;;;20.80;92.40;;;;;;7379419;19;20000;-76
2023/09/21 14:32:14;;;;;;;1.48;0.88;;;20.90;92.50;;;;;;7401529;19;19911;-80
2023/09/21 14:34:49;;;;;;;1.95;0.88;;;20.90;92.60;;;;;;7380782;19;20007;-81
2023/09/21 14:37:18;;;;;;;4.93;1.33;;;20.90;92.80;;;;;;7384168;19;20006;-79
2023/09/21 14:43:23;;;;;;;2.05;0.90;;;20.90;92.80;;;;;;7414407;19;19989;-84
2023/09/21 14:46:17;;;;;;;;;;;;;;;;;;;;;
2023/09/21 14:48:47;;;;;;;2.38;1.30;;;21.00;92.50;;;;;;7381372;19;20018;-78
2023/09/21 14:51:16;;;;;;;2.63;1.25;;;21.00;92.40;;;;;;7381789;19;20021;-80
2023/09/21 14:53:45;;;;;;;3.70;1.25;;;21.00;92.40;;;;;;7383192;19;20027;-78
2023/09/21 14:56:20;;;;;;;3.55;1.20;;;21.10;92.50;;;;;;7404782;19;20396;-81
2023/09/21 14:58:55;;;;;;;5.93;1.33;;;21.00;92.10;;;;;;7382851;19;20333;-80
2023/09/21 15:04:36;;;;;;;3.42;1.35;;;21.00;92.50;;;;;;7402656;19;20658;-77
2023/09/21 15:07:05;;;;;;;8.25;1.48;;;20.90;91.60;;;;;;7381754;19;20003;-80
2023/09/21 15:12:47;;;;;;;2.72;1.13;;;20.60;92.00;;;;;;7382784;19;19994;-79
2023/09/21 15:15:18;;;;;;;7.75;1.35;;;20.70;92.00;;;;;;7380407;19;20005;-77
2023/09/21 15:17:47;;;;;;;;;;;20.50;91.60;;;;;;7379270;19;20023;-78
2023/09/21 15:20:39;;;;;;;2.70;1.10;;;20.60;91.70;;;;;;7404385;19;19915;-81
2023/09/21 15:32:44;;;;;;;8.48;1.55;;;21.30;90.30;;;;;;7386807;19;19971;-76
2023/09/21 15:35:18;;;;;;;4.40;1.10;;;21.20;89.90;;;;;;7408053;19;20015;-81
2023/09/21 15:37:49;;;;;;;9.63;1.55;;;21.10;90.10;;;;;;7384290;19;20452;-77
2023/09/21 15:40:18;;;;;;;9.32;1.45;;;21.20;90.30;;;;;;7381286;19;20709;-77
2023/09/21 15:42:48;;;;;;;3.72;1.20;;;21.40;90.00;;;;;;7381006;19;20222;-81
2023/09/21 15:45:19;;;;;;;6.18;1.20;;;21.40;90.10;;;;;;7381384;19;20384;-79
2023/09/21 15:47:50;;;;;;;6.43;1.35;;;21.50;89.60;;;;;;7377774;19;20023;-80
2023/09/21 15:50:29;;;;;;;4.78;1.27;;;21.60;90.00;;;;;;7406769;19;20003;-81
2023/09/21 16:02:22;;;;;;;3.63;1.13;;;21.80;88.60;;;;;;7435282;19;20424;-76
2023/09/21 16:04:57;;;;;;;9.90;1.55;;;22.10;85.90;;;;;;7417948;19;20015;-79
2023/09/21 16:07:48;;;;;;;7.72;1.13;;;22.10;85.00;;;;;;7416611;19;20006;-83
2023/09/21 16:13:46;;;;;;;3.75;1.15;;;22.20;83.90;;;;;;7438133;19;19979;-81
2023/09/21 16:16:17;;;;;;;4.88;1.10;;;22.20;83.70;;;;;;7414826;19;20014;-80
2023/09/21 16:18:49;;;;;;;3.97;1.38;;;22.00;84.30;;;;;;7412853;19;20009;-77
2023/09/21 16:21:17;;;;;;;4.00;1.25;;;22.00;84.30;;;;;;7411607;19;19998;-78
2023/09/21 16:23:47;;;;;;;2.63;1.00;;;22.00;83.60;;;;;;7414754;19;19996;-78
2023/09/21 16:26:18;;;;;;;4.75;1.23;;;22.00;83.80;;;;;;7439846;19;20030;-79
2023/09/21 16:29:11;;;;;;;3.65;1.15;;;22.00;84.20;;;;;;7417250;19;20030;-82
2023/09/21 16:35:04;;;;;;;7.05;1.17;;;22.00;84.40;;;;;;7442037;19;20041;-79
2023/09/21 16:37:32;;;;;;;4.95;1.13;;;21.90;85.00;;;;;;7413547;19;20006;-77
2023/09/21 16:40:04;;;;;;;3.05;1.35;;;22.00;85.40;;;;;;7413023;19;20003;-76
2023/09/21 16:42:33;;;;;;;7.05;1.38;;;21.90;84.50;;;;;;7416186;19;20023;-78
2023/09/21 16:45:06;;;;;;;4.50;1.80;;;22.10;83.70;;;;;;7415368;19;20006;-81
2023/09/21 16:47:35;;;;;;;4.20;1.58;;;22.30;82.80;;;;;;7410809;19;20010;-76
2023/09/21 16:50:43;;;;;;;74.70;37.58;;;22.70;79.50;;;;;;7446085;19;20010;-85
2023/09/21 16:53:21;;;;;;;12.63;3.33;;;23.00;78.70;;;;;;7415259;19;20244;-80
2023/09/21 16:55:52;;;;;;;44.08;21.95;;;23.10;77.40;;;;;;7414329;19;20002;-78
2023/09/21 17:01:34;;;;;;;6.35;1.40;;;22.90;78.30;;;;;;7414712;19;20047;-79
2023/09/21 17:04:44;;;;;;;5.75;2.20;;;22.70;78.40;;;;;;7417973;19;20007;-83
2023/09/21 17:07:13;;;;;;;10.27;1.83;;;22.40;79.10;;;;;;7411999;19;20014;-79
2023/09/21 17:13:26;;;;;;;6.15;1.50;;;21.90;80.90;;;;;;7397221;19;20031;-82
2023/09/21 17:15:55;;;;;;;5.03;1.25;;;21.60;81.70;;;;;;7384177;19;20002;-78
2023/09/21 17:18:26;;;;;;;6.47;1.65;;;21.50;83.50;;;;;;7386121;19;20392;-79
2023/09/21 17:21:42;;;;;;;;;;;;;;;;;;;;;
2023/09/21 17:24:12;;;;;;;7.75;1.60;;;21.20;85.80;;;;;;7384581;19;20010;-79
2023/09/21 17:26:43;;;;;;;10.68;2.38;;;21.20;86.90;;;;;;7387987;19;20007;-80
2023/09/21 17:29:27;;;;;;;9.48;1.90;;;21.10;87.40;;;;;;7404722;19;20099;-82
2023/09/21 17:31:55;;;;;;;11.55;2.10;;;21.00;88.00;;;;;;7385188;19;20344;-77
2023/09/21 17:34:25;;;;;;;7.43;1.95;;;20.90;88.80;;;;;;7388087;19;20023;-80
2023/09/21 17:36:53;;;;;;;13.52;2.00;;;20.70;89.60;;;;;;7391246;19;20011;-77
2023/09/21 17:39:25;;;;;;;11.85;1.98;;;20.70;90.10;;;;;;7383054;19;20003;-82
2023/09/21 17:41:57;;;;;;;8.93;1.60;;;20.60;90.40;;;;;;7380713;19;19999;-79
2023/09/21 17:44:27;;;;;;;11.10;2.22;;;20.50;90.50;;;;;;7388611;19;20011;-79
2023/09/21 17:47:33;;;;;;;9.63;1.55;;;20.50;90.70;;;;;;7409723;19;20018;-81
2023/09/21 17:50:37;;;;;;;13.90;2.65;;;20.40;90.80;;;;;;7383249;19;20010;-82
2023/09/21 18:00:00;;;;;;;28.17;10.75;;;20.30;91.00;;;;;;7264410;19;2004476;-82
2023/09/21 18:02:32;;;;;;;11.57;3.65;;;20.20;91.00;;;;;;7381576;19;20077;-79
2023/09/21 18:24:53;;;;;;;9.70;2.38;;;20.00;91.30;;;;;;7421126;19;20786;-78
2023/09/21 18:27:29;;;;;;;;;;;20.00;91.40;;;;;;7417790;19;20107;-93
2023/09/21 18:40:27;;;;;;;13.70;2.60;;;20.10;91.70;;;;;;7437778;19;20418;-82
2023/09/21 18:43:18;;;;;;;8.20;2.15;;;20.10;91.50;;;;;;7411739;19;20007;-79
2023/09/21 18:48:57;;;;;;;15.77;5.88;;;20.20;91.60;;;;;;7418331;19;19998;-78
2023/09/21 18:54:37;;;;;;;9.93;2.90;;;20.20;91.50;;;;;;7435186;19;19974;-76
2023/09/21 18:57:09;;;;;;;8.68;2.17;;;20.20;91.20;;;;;;7411119;19;20252;-77
2023/09/21 18:59:41;;;;;;;12.43;2.97;;;20.20;90.90;;;;;;7410262;19;20003;-77
2023/09/21 19:02:11;;;;;;;;;;;20.20;90.90;;;;;;7430453;19;20003;-78
2023/09/21 19:04:42;;;;;;;10.10;2.17;;;20.30;91.20;;;;;;7415270;19;19903;-79
2023/09/21 19:07:12;;;;;;;10.20;2.25;;;20.20;91.10;;;;;;7413761;19;20594;-78
2023/09/21 19:09:41;;;;;;;14.25;2.15;;;20.30;91.10;;;;;;7419251;19;20032;-78
2023/09/21 19:12:10;;;;;;;6.75;1.80;;;20.30;91.20;;;;;;7418935;19;20031;-78
2023/09/21 19:14:41;;;;;;;9.60;2.15;;;20.20;91.40;;;;;;7415987;19;20018;-78
2023/09/21 19:17:10;;;;;;;9.40;2.42;;;20.20;91.30;;;;;;7442573;19;20105;-79
2023/09/21 19:19:39;;;;;;;10.63;2.60;;;20.20;91.50;;;;;;7420199;19;20018;-79
2023/09/21 19:22:09;;;;;;;9.40;2.15;;;20.00;91.60;;;;;;7420207;19;20278;-80
2023/09/21 19:24:37;;;;;;;15.55;2.35;;;20.00;91.70;;;;;;7404807;19;20017;-79
2023/09/21 19:27:06;;;;;;;5.85;1.73;;;20.00;91.90;;;;;;7389695;19;20003;-79
2023/09/21 19:29:35;;;;;;;14.32;2.13;;;19.70;92.00;;;;;;7393229;19;20034;-79
2023/09/21 19:32:13;;;;;;;10.05;2.13;;;19.80;92.10;;;;;;7411929;19;20365;-79
2023/09/21 19:34:41;;;;;;;8.40;2.35;;;19.80;92.20;;;;;;7393846;19;20031;-79
2023/09/21 19:37:10;;;;;;;8.43;1.73;;;19.70;92.20;;;;;;7394867;19;20007;-79
2023/09/21 19:39:39;;;;;;;9.15;1.65;;;19.80;92.30;;;;;;7398970;19;20075;-78
2023/09/21 19:42:09;;;;;;;14.63;2.40;;;19.80;92.30;;;;;;7402660;19;20007;-79
2023/09/21 19:44:37;;;;;;;12.02;2.20;;;19.80;92.40;;;;;;7397367;19;20021;-78
2023/09/21 19:47:09;;;;;;;10.45;1.92;;;19.90;92.50;;;;;;7415147;19;20007;-78
2023/09/21 19:49:40;;;;;;;;;;;19.90;92.50;;;;;;7393562;19;20034;-79
2023/09/21 19:52:09;;;;;;;6.67;1.73;;;19.90;92.30;;;;;;7388553;19;19974;-79
2023/09/21 19:54:38;;;;;;;7.57;2.00;;;19.90;92.20;;;;;;7392086;19;20255;-78
2023/09/21 19:57:07;;;;;;;6.25;1.85;;;19.90;92.30;;;;;;7389508;19;20034;-78
2023/09/21 19:59:36;;;;;;;7.15;2.20;;;19.90;92.20;;;;;;7393214;19;20010;-77
2023/09/21 20:02:06;;;;;;;4.18;1.70;;;19.80;92.10;;;;;;7412407;19;20030;-78
2023/09/21 20:04:38;;;;;;;6.10;1.42;;;19.70;92.00;;;;;;7391194;19;20369;-79
2023/09/21 20:07:06;;;;;;;;;;;19.60;92.00;;;;;;7390902;19;20003;-79
2023/09/21 20:09:35;;;;;;;10.13;1.83;;;19.70;92.10;;;;;;7389826;19;19911;-80
2023/09/21 20:12:04;;;;;;;8.38;1.70;;;19.70;92.10;;;;;;7389664;19;20034;-79
2023/09/21 20:14:33;;;;;;;5.35;1.95;;;19.70;91.90;;;;;;7389724;19;20015;-79
2023/09/21 20:17:02;;;;;;;5.88;1.77;;;19.70;92.10;;;;;;7413280;19;20071;-79
2023/09/21 20:19:31;;;;;;;11.38;1.60;;;19.60;91.80;;;;;;7391641;19;20014;-79
2023/09/21 20:22:03;;;;;;;12.27;1.70;;;19.70;92.00;;;;;;7389700;19;20002;-78
2023/09/21 20:24:32;;;;;;;6.40;1.40;;;19.60;91.80;;;;;;7389509;19;20017;-78
2023/09/21 20:27:01;;;;;;;5.88;1.27;;;19.60;91.70;;;;;;7390751;19;20070;-79
2023/09/21 20:29:31;;;;;;;8.82;1.50;;;19.70;91.80;;;;;;7390212;19;20010;-78
2023/09/21 20:32:01;;;;;;;4.60;1.95;;;19.70;91.90;;;;;;7414482;19;20042;-80
2023/09/21 20:34:30;;;;;;;9.82;3.70;;;19.80;91.60;;;;;;7389544;19;20034;-79
2023/09/21 20:37:01;;;;;;;4.90;1.95;;;19.80;91.40;;;;;;7388776;19;20026;-78
2023/09/21 20:39:30;;;;;;;13.63;4.45;;;19.70;91.10;;;;;;7390916;19;20007;-79
2023/09/21 20:42:00;;;;;;;7.80;1.60;;;19.70;91.10;;;;;;7389649;19;20060;-79
2023/09/21 20:44:30;;;;;;;9.52;3.28;;;19.60;91.10;;;;;;7388897;19;20222;-77
2023/09/21 20:46:59;;;;;;;8.20;2.03;;;19.70;91.30;;;;;;7410503;19;20010;-78
2023/09/21 20:49:28;;;;;;;8.05;1.50;;;19.60;91.10;;;;;;7389620;19;20007;-80
2023/09/21 20:51:57;;;;;;;7.25;1.60;;;19.50;91.00;;;;;;7389084;19;20054;-79
2023/09/21 20:54:29;;;;;;;6.75;1.48;;;19.60;91.40;;;;;;7389063;19;20015;-79
2023/09/21 20:56:57;;;;;;;7.50;1.50;;;19.50;91.20;;;;;;7389854;19;20038;-79
2023/09/21 20:59:26;;;;;;;6.30;2.78;;;19.40;91.20;;;;;;7390152;19;20006;-79
2023/09/21 21:01:56;;;;;;;9.88;2.47;;;19.50;91.50;;;;;;7412385;19;20015;-79
2023/09/21 21:04:24;;;;;;;4.55;1.42;;;19.50;91.40;;;;;;7390557;19;20297;-79
2023/09/21 21:06:53;;;;;;;9.02;2.58;;;19.40;91.30;;;;;;7388956;19;20127;-79
2023/09/21 21:09:22;;;;;;;5.55;1.95;;;19.40;91.30;;;;;;7388443;19;20014;-79
2023/09/21 21:11:53;;;;;;;4.93;1.48;;;19.40;91.40;;;;;;7390282;19;20050;-79
2023/09/21 21:14:22;;;;;;;;;;;19.30;91.00;;;;;;7410422;19;20015;-79
2023/09/21 21:16:51;;;;;;;6.00;1.45;;;19.20;91.20;;;;;;7389601;19;19911;-79
2023/09/21 21:19:20;;;;;;;4.32;1.48;;;19.30;91.30;;;;;;7389291;19;20014;-79
2023/09/21 21:21:49;;;;;;;4.82;1.27;;;19.20;91.40;;;;;;7389391;19;20062;-79
2023/09/21 21:24:22;;;;;;;4.00;1.02;;;19.20;91.30;;;;;;7388027;19;20026;-78
2023/09/21 21:26:58;;;;;;;3.92;1.42;;;19.10;91.30;;;;;;7390488;19;20010;-78
2023/09/21 21:29:48;;;;;;;5.38;3.20;;;19.20;91.40;;;;;;7387558;19;20013;-78
2023/09/21 21:32:23;;;;;;;3.42;1.95;;;19.20;91.40;;;;;;7408769;19;20010;-78
2023/09/21 21:34:59;;;;;;;8.35;1.90;;;19.30;91.30;;;;;;7386820;19;20299;-77
2023/09/21 21:37:49;;;;;;;3.13;1.48;;;19.20;91.20;;;;;;7387141;19;20006;-78
2023/09/21 21:40:30;;;;;;;4.07;1.30;;;19.10;91.00;;;;;;7397619;19;20014;-78
2023/09/21 21:43:05;;;;;;;1.33;0.70;;;19.10;91.00;;;;;;7404299;19;20019;-79
2023/09/21 21:45:35;;;;;;;3.33;1.08;;;19.10;91.00;;;;;;7392400;19;20011;-80
2023/09/21 21:48:27;;;;;;;;;;;;;;;;;;;;;
2023/09/21 21:51:46;;;;;;;;;;;;;;;;;;;;;
2023/09/21 21:54:20;;;;;;;3.40;0.80;;;19.00;90.90;;;;;;7382690;19;20011;-78
2023/09/21 21:56:48;;;;;;;3.47;0.85;;;19.10;91.00;;;;;;7383504;19;20027;-77
2023/09/21 21:59:21;;;;;;;2.03;0.80;;;19.10;91.00;;;;;;7405023;19;20267;-79
2023/09/21 22:01:50;;;;;;;6.28;0.98;;;19.10;90.80;;;;;;7383651;19;20016;-77
2023/09/21 22:04:21;;;;;;;1.83;0.60;;;19.10;90.80;;;;;;7383772;19;20030;-77
2023/09/21 22:06:51;;;;;;;1.55;0.65;;;19.00;90.80;;;;;;7386209;19;20011;-78
2023/09/21 22:09:21;;;;;;;2.28;0.80;;;18.90;90.90;;;;;;7382076;19;20011;-77
2023/09/21 22:11:49;;;;;;;1.17;0.47;;;18.90;91.10;;;;;;7379325;19;20023;-77
2023/09/21 22:14:21;;;;;;;4.82;1.00;;;18.90;91.00;;;;;;7400315;19;20033;-77
2023/09/21 22:16:49;;;;;;;2.58;0.90;;;19.00;91.10;;;;;;7379538;19;20362;-78
2023/09/21 22:19:18;;;;;;;1.73;0.75;;;19.00;91.20;;;;;;7382358;19;20007;-77
2023/09/21 22:21:50;;;;;;;7.03;0.60;;;19.00;91.50;;;;;;7378386;19;20384;-76
2023/09/21 22:24:20;;;;;;;0.60;0.57;;;19.00;91.20;;;;;;7378044;19;20003;-76
2023/09/21 22:26:49;;;;;;;2.25;0.68;;;18.90;91.10;;;;;;7379172;19;20003;-76
2023/09/21 22:29:20;;;;;;;4.90;0.82;;;19.00;91.30;;;;;;7400449;19;20007;-77
2023/09/21 22:31:49;;;;;;;;;;;19.00;91.30;;;;;;7378649;19;20549;-76
2023/09/21 22:34:18;;;;;;;5.15;0.73;;;18.80;91.30;;;;;;7376807;19;19927;-76
2023/09/21 22:36:47;;;;;;;6.43;1.30;;;18.80;91.40;;;;;;7378769;19;20023;-78
2023/09/21 22:39:16;;;;;;;7.90;1.10;;;18.80;91.60;;;;;;7379197;19;20003;-76
2023/09/21 22:41:45;;;;;;;3.78;0.90;;;18.80;91.70;;;;;;7378749;19;20018;-76
2023/09/21 22:44:15;;;;;;;3.10;1.00;;;18.80;91.70;;;;;;7399604;19;20028;-77
2023/09/21 22:46:49;;;;;;;3.55;0.70;;;18.90;91.80;;;;;;7377634;19;20002;-77
2023/09/21 22:49:18;;;;;;;6.60;0.98;;;18.90;91.90;;;;;;7378120;19;20010;-76
2023/09/21 22:51:48;;;;;;;5.32;0.98;;;18.80;91.90;;;;;;7378188;19;20023;-76
2023/09/21 22:54:17;;;;;;;2.05;0.68;;;18.70;92.00;;;;;;7376924;19;20015;-76
2023/09/21 22:56:45;;;;;;;4.30;0.90;;;18.70;92.50;;;;;;7378234;19;20251;-77
2023/09/21 22:59:14;;;;;;;3.20;1.20;;;18.70;92.30;;;;;;7400263;19;20091;-76
2023/09/21 23:01:46;;;;;;;2.20;0.93;;;18.80;92.40;;;;;;7384358;19;20002;-76
2023/09/21 23:04:14;;;;;;;;;;;18.80;92.40;;;;;;7388131;19;20058;-76
2023/09/21 23:06:43;;;;;;;6.00;1.13;;;18.90;92.40;;;;;;7385286;19;19903;-76
2023/09/21 23:09:13;;;;;;;5.32;1.33;;;18.90;92.20;;;;;;7384633;19;19998;-76
2023/09/21 23:11:42;;;;;;;1.02;0.80;;;18.90;92.10;;;;;;7384845;19;20020;-76
2023/09/21 23:14:11;;;;;;;5.28;1.42;;;18.70;92.20;;;;;;7407367;19;20003;-77
2023/09/21 23:16:40;;;;;;;13.02;1.10;;;18.70;92.70;;;;;;7386854;19;20003;-77
2023/09/21 23:19:14;;;;;;;3.15;1.05;;;18.60;92.30;;;;;;7384780;19;20011;-77
2023/09/21 23:21:44;;;;;;;8.50;1.10;;;18.70;92.50;;;;;;7384599;19;20405;-76